Time;durP1;ratioP1;P1;durP2;ratioP2;P2;SDS_P1;SDS_P2;PMS_P1;PMS_P2;Temp;Humidity;BMP_temperature;BMP_pressure;BME280_temperature;BME280_humidity;BME280_pressure;Samples;Min_cycle;Max_cycle;Signal;HPM_P1;HPM_P2
2022/02/07 00:01:50;;;;;;;0.70;0.70;;;;;;;0.74;100.00;95638.28;4984782;28;20364;-47
2022/02/07 00:04:23;;;;;;;0.60;0.60;;;;;;;0.74;100.00;95653.09;4948639;28;20209;-51
2022/02/07 00:06:53;;;;;;;0.90;0.90;;;;;;;0.68;100.00;95647.56;4986343;28;20209;-53
2022/02/07 00:09:21;;;;;;;0.60;0.60;;;;;;;0.62;100.00;95626.53;4971594;28;20212;-51
2022/02/07 00:11:49;;;;;;;0.70;0.70;;;;;;;0.61;100.00;95617.09;4970116;28;20484;-50
2022/02/07 00:14:16;;;;;;;0.70;0.70;;;;;;;0.65;100.00;95568.88;4986281;28;20273;-51
2022/02/07 00:16:44;;;;;;;0.60;0.60;;;;;;;0.62;100.00;95493.59;4970268;28;20205;-52
2022/02/07 00:19:19;;;;;;;0.67;0.67;;;;;;;0.56;100.00;95498.47;4950148;28;20214;-51
2022/02/07 00:21:47;;;;;;;0.70;0.70;;;;;;;0.54;100.00;95512.66;4986018;28;20259;-53
2022/02/07 00:24:17;;;;;;;0.57;0.57;;;;;;;0.65;100.00;95501.09;4970319;28;20216;-49
2022/02/07 00:26:45;;;;;;;0.77;0.77;;;;;;;0.66;100.00;95482.66;4962910;28;20430;-50
2022/02/07 00:29:14;;;;;;;0.50;0.50;;;;;;;0.58;100.00;95493.09;4984126;28;20201;-49
2022/02/07 00:31:42;;;;;;;0.83;0.83;;;;;;;0.57;100.00;95486.25;4964702;28;20229;-51
2022/02/07 00:34:10;;;;;;;0.60;0.60;;;;;;;0.59;100.00;95507.75;4947211;28;20226;-50
2022/02/07 00:36:38;;;;;;;0.83;0.83;;;;;;;0.63;100.00;95544.75;4985484;28;20200;-46
2022/02/07 00:39:12;;;;;;;0.60;0.60;;;;;;;0.62;100.00;95558.75;4968729;28;20215;-52
2022/02/07 00:41:46;;;;;;;0.60;0.60;;;;;;;0.55;100.00;95574.22;4965367;28;20230;-51
2022/02/07 00:44:16;;;;;;;1.40;0.73;;;;;;;0.50;100.00;95582.50;4988849;28;20209;-48
2022/02/07 00:46:51;;;;;;;0.80;0.80;;;;;;;0.57;100.00;95570.50;4965934;28;20694;-49
2022/02/07 00:49:20;;;;;;;0.70;0.70;;;;;;;0.56;100.00;95568.84;4982769;28;20209;-48
2022/02/07 00:51:49;;;;;;;0.60;0.60;;;;;;;0.53;100.00;95568.38;4947488;28;20240;-51
2022/02/07 00:54:17;;;;;;;1.40;0.67;;;;;;;0.56;100.00;95544.56;4987566;28;20227;-50
2022/02/07 00:56:46;;;;;;;0.60;0.60;;;;;;;0.48;100.00;95550.59;4952096;28;20212;-47
2022/02/07 00:59:15;;;;;;;0.80;0.80;;;;;;;0.54;100.00;95599.47;4987778;28;20197;-50
2022/02/07 01:01:43;;;;;;;0.57;0.57;;;;;;;0.52;100.00;95616.25;4968502;28;20225;-48
2022/02/07 01:04:11;;;;;;;0.70;0.70;;;;;;;0.58;100.00;95620.81;4983584;28;20669;-48
2022/02/07 01:06:39;;;;;;;0.90;0.90;;;;;;;0.55;100.00;95590.66;4925782;28;20221;-52
2022/02/07 01:09:13;;;;;;;0.60;0.60;;;;;;;0.62;100.00;95618.72;4984402;28;20307;-50
2022/02/07 01:12:03;;;;;;;0.50;0.50;;;;;;;0.50;100.00;95665.91;4971587;28;20222;-49
2022/02/07 01:14:45;;;;;;;0.60;0.60;;;;;;;0.51;100.00;95685.78;4967765;28;20817;-51
2022/02/07 01:20:26;;;;;;;0.70;0.70;;;;;;;0.50;100.00;95685.97;4942563;28;21966;-50
2022/02/07 01:23:21;;;;;;;0.90;0.90;;;;;;;0.43;100.00;95686.59;4982573;28;20213;-49
2022/02/07 01:48:18;;;;;;;0.87;0.87;;;;;;;0.35;100.00;95740.47;4927959;28;20294;-51
2022/02/07 01:50:54;;;;;;;0.60;0.60;;;;;;;0.31;100.00;95731.31;4893561;28;20354;-49
2022/02/07 01:53:33;;;;;;;0.90;0.90;;;;;;;0.35;100.00;95714.41;4928530;28;20238;-47
2022/02/07 01:56:05;;;;;;;0.73;0.73;;;;;;;0.23;100.00;95729.47;4912672;28;20690;-48
2022/02/07 01:58:33;;;;;;;0.73;0.73;;;;;;;0.32;100.00;95743.38;4914123;28;20318;-50
2022/02/07 02:01:01;;;;;;;0.60;0.60;;;;;;;0.35;100.00;95743.88;4911639;28;20231;-49
2022/02/07 02:03:31;;;;;;;0.77;0.77;;;;;;;0.35;100.00;95769.13;4923184;28;20299;-49
2022/02/07 02:06:03;;;;;;;0.70;0.70;;;;;;;0.28;100.00;95772.34;4914898;28;20218;-43
2022/02/07 02:09:26;;;;;;;0.90;0.90;;;;;;;0.27;100.00;95775.09;4889215;28;20216;-50
2022/02/07 02:11:54;;;;;;;0.70;0.70;;;;;;;0.25;100.00;95780.47;4965486;28;20784;-51
2022/02/07 02:14:37;;;;;;;0.80;0.80;;;;;;;0.30;100.00;95766.16;4977258;28;20341;-49
2022/02/07 02:37:16;;;;;;;0.80;0.80;;;;;;;0.22;100.00;95817.25;4956417;28;20232;-48
2022/02/07 02:48:14;;;;;;;0.90;0.90;;;;;;;0.23;100.00;95867.56;4947204;28;20691;-51
2022/02/07 02:50:43;;;;;;;0.73;0.73;;;;;;;0.28;100.00;95881.78;4959642;28;20327;-49
2022/02/07 02:53:13;;;;;;;1.27;1.17;;;;;;;0.23;100.00;95894.44;4959924;28;20305;-50
2022/02/07 02:55:44;;;;;;;1.27;1.23;;;;;;;0.27;100.00;95892.34;4950184;28;20471;-50
2022/02/07 02:58:14;;;;;;;1.00;1.00;;;;;;;0.12;100.00;95902.47;4969738;28;20229;-50
2022/02/07 03:00:45;;;;;;;0.70;0.70;;;;;;;0.18;100.00;95908.88;4950992;28;21123;-50
2022/02/07 03:03:13;;;;;;;1.10;1.10;;;;;;;0.20;100.00;95930.38;4954474;28;20332;-48
2022/02/07 03:05:44;;;;;;;1.37;1.37;;;;;;;0.09;100.00;95921.00;4969449;28;20295;-49
2022/02/07 03:08:13;;;;;;;1.03;1.03;;;;;;;-0.03;100.00;95928.22;4978618;28;20298;-50
2022/02/07 03:10:53;;;;;;;1.33;1.33;;;;;;;-0.10;100.00;95943.63;5024280;28;20448;-49
2022/02/07 03:13:34;;;;;;;1.40;1.30;;;;;;;-0.19;100.00;95932.31;5037995;28;20295;-48
2022/02/07 03:18:48;;;;;;;1.03;1.03;;;;;;;-0.24;100.00;95965.78;5033324;28;20781;-53
2022/02/07 03:21:16;;;;;;;1.70;1.27;;;;;;;-0.18;100.00;95975.59;5048812;28;20250;-47
2022/02/07 03:23:44;;;;;;;3.43;1.70;;;;;;;-0.16;100.00;95975.47;4995754;28;20528;-50
2022/02/07 03:26:17;;;;;;;1.23;1.23;;;;;;;-0.10;100.00;95976.66;5048638;28;20235;-46
2022/02/07 03:28:48;;;;;;;1.33;1.33;;;;;;;-0.06;100.00;95988.41;5035869;28;20207;-49
2022/02/07 03:31:16;;;;;;;1.30;1.20;;;;;;;-0.07;100.00;95982.41;5020390;28;20314;-46
2022/02/07 03:33:44;;;;;;;1.17;1.17;;;;;;;-0.17;100.00;95990.25;5030497;28;20685;-48
2022/02/07 03:36:14;;;;;;;1.53;1.37;;;;;;;-0.22;100.00;96002.91;5019984;28;20211;-46
2022/02/07 03:38:42;;;;;;;1.47;1.37;;;;;;;-0.21;100.00;96008.91;5022008;28;20477;-48
2022/02/07 03:41:10;;;;;;;2.83;1.67;;;;;;;-0.22;100.00;96018.53;4996579;28;20847;-47
2022/02/07 03:43:40;;;;;;;1.90;1.80;;;;;;;-0.21;100.00;96033.19;5030519;28;20847;-49
2022/02/07 03:46:08;;;;;;;1.90;1.80;;;;;;;-0.17;100.00;96047.53;5018188;28;20742;-46
2022/02/07 03:48:36;;;;;;;1.40;1.40;;;;;;;-0.18;100.00;96038.09;5020832;28;20461;-49
2022/02/07 03:51:04;;;;;;;3.40;2.20;;;;;;;-0.07;100.00;96054.47;5015680;28;20232;-49
2022/02/07 03:53:32;;;;;;;1.63;1.63;;;;;;;-0.06;100.00;96069.97;5031477;28;20489;-48
2022/02/07 03:56:01;;;;;;;1.97;1.80;;;;;;;-0.11;100.00;96069.59;4996532;28;20302;-49
2022/02/07 03:58:29;;;;;;;1.77;1.77;;;;;;;-0.05;100.00;96069.00;5030735;28;20195;-47
2022/02/07 04:00:58;;;;;;;1.80;1.67;;;;;;;-0.07;100.00;96076.16;5024433;28;20224;-48
2022/02/07 04:03:29;;;;;;;1.47;1.47;;;;;;;-0.10;100.00;96094.66;5020833;28;20214;-45
2022/02/07 04:06:01;;;;;;;1.67;1.67;;;;;;;-0.02;100.00;96110.38;5017680;28;20683;-50
2022/02/07 04:08:32;;;;;;;2.13;2.03;;;;;;;0.02;100.00;96105.72;5031768;28;20475;-50
2022/02/07 04:11:06;;;;;;;1.77;1.73;;;;;;;-0.01;100.00;96122.44;4994546;28;20620;-48
2022/02/07 04:13:35;;;;;;;1.63;1.63;;;;;;;-0.22;100.00;96150.47;5027687;28;20427;-47
2022/02/07 04:16:07;;;;;;;1.53;1.43;;;;;;;-0.66;100.00;96193.41;5031229;28;20293;-48
2022/02/07 04:18:48;;;;;;;1.50;1.50;;;;;;;-0.88;100.00;96186.72;4997541;28;20540;-48
2022/02/07 04:21:17;;;;;;;2.30;1.43;;;;;;;-0.98;100.00;96201.50;5014735;28;20913;-45
2022/02/07 04:23:45;;;;;;;1.73;1.73;;;;;;;-1.05;100.00;96229.81;5026371;28;20200;-44
2022/02/07 04:26:13;;;;;;;6.40;2.43;;;;;;;-1.07;100.00;96249.94;4942252;28;20740;-48
2022/02/07 04:28:42;;;;;;;1.33;1.33;;;;;;;-1.12;100.00;96236.50;4994649;28;20501;-52
2022/02/07 04:31:11;;;;;;;1.40;1.40;;;;;;;-1.05;100.00;96211.63;4966438;28;20241;-52
2022/02/07 04:33:39;;;;;;;1.00;1.00;;;;;;;-1.12;100.00;96205.31;4979080;28;20725;-48
2022/02/07 04:36:08;;;;;;;1.10;1.10;;;;;;;-1.13;100.00;96211.47;4959047;28;23684;-50
2022/02/07 04:38:36;;;;;;;1.27;1.17;;;;;;;-1.23;100.00;96225.28;4978335;28;20243;-47
2022/02/07 04:41:07;;;;;;;1.10;1.10;;;;;;;-1.15;100.00;96229.00;4991545;28;20332;-49
2022/02/07 04:43:36;;;;;;;0.90;0.90;;;;;;;-1.26;100.00;96235.94;4949590;28;20217;-51
2022/02/07 04:46:12;;;;;;;0.83;0.83;;;;;;;-1.28;100.00;96240.47;4976678;28;20212;-46
2022/02/07 04:54:32;;;;;;;2.90;1.20;;;;;;;-1.15;100.00;96275.78;4984944;28;20464;-49
2022/02/07 04:57:08;;;;;;;1.10;1.00;;;;;;;-1.14;100.00;96287.81;4993582;28;20283;-49
2022/02/07 04:59:48;;;;;;;0.93;0.90;;;;;;;-1.10;100.00;96304.81;4941477;28;21208;-53
2022/02/07 05:02:24;;;;;;;0.93;0.93;;;;;;;-1.10;100.00;96317.81;4978263;28;20663;-51
2022/02/07 05:05:02;;;;;;;0.83;0.80;;;;;;;-1.05;100.00;96326.03;4993136;28;20212;-49
2022/02/07 05:15:49;;;;;;;1.00;0.90;;;;;;;-1.02;100.00;96349.16;4963416;28;20216;-51
2022/02/07 05:18:20;;;;;;;1.77;1.00;;;;;;;-1.03;100.00;96363.13;4989693;28;20252;-53
2022/02/07 05:20:49;;;;;;;0.90;0.90;;;;;;;-1.06;100.00;96360.78;4990980;28;20256;-55
2022/02/07 05:23:17;;;;;;;1.17;1.00;;;;;;;-1.03;100.00;96376.13;4960080;28;20219;-54
2022/02/07 05:25:45;;;;;;;0.97;0.97;;;;;;;-1.03;100.00;96389.13;4980497;28;20294;-50
2022/02/07 05:28:14;;;;;;;0.70;0.70;;;;;;;-1.02;100.00;96401.16;4987871;28;20291;-53
2022/02/07 05:30:42;;;;;;;1.10;1.10;;;;;;;-1.01;100.00;96413.22;4947938;28;20953;-51
2022/02/07 05:33:10;;;;;;;1.03;1.03;;;;;;;-0.99;100.00;96429.50;4979937;28;20869;-54
2022/02/07 05:35:39;;;;;;;1.07;1.07;;;;;;;-1.02;100.00;96429.75;4987375;28;20296;-52
2022/02/07 05:38:09;;;;;;;1.53;0.90;;;;;;;-1.07;100.00;96421.53;4965776;28;20248;-52
2022/02/07 05:40:42;;;;;;;1.00;1.00;;;;;;;-1.12;100.00;96429.75;4976345;28;20221;-52
2022/02/07 05:43:14;;;;;;;0.90;0.90;;;;;;;-1.13;100.00;96429.84;4991876;28;20203;-50
2022/02/07 05:45:42;;;;;;;1.50;1.40;;;;;;;-1.16;100.00;96436.13;4965530;28;20232;-52
2022/02/07 05:48:10;;;;;;;1.90;1.50;;;;;;;-1.11;100.00;96438.34;4980880;28;20669;-53
2022/02/07 05:50:38;;;;;;;1.43;1.33;;;;;;;-1.10;100.00;96446.03;4988077;28;21227;-50
2022/02/07 05:53:08;;;;;;;1.33;1.33;;;;;;;-1.14;100.00;96465.41;4966680;28;20213;-48
2022/02/07 05:55:36;;;;;;;1.50;1.47;;;;;;;-1.14;100.00;96485.41;4958613;28;20698;-49
2022/02/07 05:58:04;;;;;;;1.53;1.43;;;;;;;-1.07;100.00;96491.75;4993904;28;20794;-51
2022/02/07 06:00:34;;;;;;;1.30;1.30;;;;;;;-1.09;100.00;96501.44;4934363;28;21121;-48
2022/02/07 06:03:03;;;;;;;1.47;1.27;;;;;;;-1.06;100.00;96499.44;4978042;28;20209;-49
2022/02/07 06:05:31;;;;;;;2.20;1.50;;;;;;;-1.03;100.00;96503.53;4989512;28;20229;-50
2022/02/07 06:07:59;;;;;;;4.23;1.37;;;;;;;-1.06;100.00;96514.19;4973758;28;20219;-48
2022/02/07 06:10:29;;;;;;;1.00;1.00;;;;;;;-1.07;100.00;96517.75;4967847;28;20204;-54
2022/02/07 06:12:57;;;;;;;2.00;1.70;;;;;;;-1.02;100.00;96526.81;4992749;28;20292;-49
2022/02/07 06:15:25;;;;;;;1.73;1.47;;;;;;;-1.01;100.00;96522.44;4955858;28;20217;-48
2022/02/07 06:17:57;;;;;;;1.70;1.63;;;;;;;-1.03;100.00;96540.78;4976588;28;20301;-49
2022/02/07 06:20:25;;;;;;;1.27;1.27;;;;;;;-1.00;100.00;96547.47;4970491;28;20225;-53
2022/02/07 06:22:53;;;;;;;3.63;1.30;;;;;;;-0.98;100.00;96558.56;4955794;28;20227;-50
2022/02/07 06:25:22;;;;;;;1.40;1.40;;;;;;;-1.09;100.00;96566.44;4979190;28;20287;-50
2022/02/07 06:27:52;;;;;;;1.30;1.30;;;;;;;-0.99;100.00;96580.34;4967913;28;20328;-52
2022/02/07 06:30:20;;;;;;;1.13;1.13;;;;;;;-0.96;100.00;96593.09;4950963;28;21351;-52
2022/02/07 06:32:48;;;;;;;1.57;1.40;;;;;;;-1.05;100.00;96591.25;4990588;28;20299;-52
2022/02/07 06:35:17;;;;;;;1.17;1.17;;;;;;;-1.04;100.00;96609.34;4978643;28;20204;-54
2022/02/07 06:37:45;;;;;;;1.30;1.27;;;;;;;-1.04;100.00;96619.75;4993304;28;20236;-54
2022/02/07 06:40:13;;;;;;;1.53;1.43;;;;;;;-0.94;100.00;96618.97;4960161;28;20224;-52
2022/02/07 06:42:42;;;;;;;1.40;1.40;;;;;;;-0.93;100.00;96644.88;4983363;28;20233;-53
2022/02/07 06:45:11;;;;;;;1.30;1.03;;;;;;;-0.91;100.00;96642.13;4952599;28;20808;-53
2022/02/07 06:47:40;;;;;;;5.10;1.43;;;;;;;-0.97;100.00;96643.44;4991942;28;20464;-50
2022/02/07 06:50:08;;;;;;;1.20;1.20;;;;;;;-0.97;100.00;96658.25;4974613;28;20488;-47
2022/02/07 06:52:37;;;;;;;2.20;1.63;;;;;;;-1.04;100.00;96663.94;4992310;28;20488;-50
2022/02/07 06:55:06;;;;;;;1.33;1.00;;;;;;;-1.00;100.00;96667.09;4973014;28;20205;-48
2022/02/07 06:57:35;;;;;;;2.20;1.67;;;;;;;-0.95;100.00;96675.34;4982389;28;20565;-50
2022/02/07 07:00:05;;;;;;;1.47;1.37;;;;;;;-0.93;100.00;96680.44;4988186;28;20297;-47
2022/02/07 07:02:35;;;;;;;3.03;1.70;;;;;;;-1.02;100.00;96669.84;4957955;28;20232;-47
2022/02/07 07:05:09;;;;;;;2.30;1.63;;;;;;;-0.84;100.00;96684.09;4975085;28;20343;-51
2022/02/07 07:07:38;;;;;;;1.70;1.17;;;;;;;-0.93;100.00;96689.09;4996129;28;20211;-51
2022/02/07 07:10:08;;;;;;;2.83;1.53;;;;;;;-0.86;100.00;96686.78;4976427;28;20245;-50
2022/02/07 07:12:36;;;;;;;1.80;1.70;;;;;;;-0.76;100.00;96700.72;4996011;28;20282;-52
2022/02/07 07:15:10;;;;;;;1.80;1.60;;;;;;;-0.76;100.00;96711.13;4981092;28;20209;-51
2022/02/07 07:17:39;;;;;;;2.93;2.03;;;;;;;-0.70;100.00;96707.19;4959170;28;20504;-51
2022/02/07 07:20:09;;;;;;;2.83;1.17;;;;;;;-0.65;100.00;96720.66;4977326;28;20233;-51
2022/02/07 07:22:37;;;;;;;1.43;1.43;;;;;;;-0.65;100.00;96730.25;4994982;28;20335;-50
2022/02/07 07:25:10;;;;;;;1.63;1.53;;;;;;;-0.68;100.00;96725.28;4974685;28;20292;-48
2022/02/07 07:27:54;;;;;;;2.00;1.23;;;;;;;-0.69;100.00;96736.66;4996439;28;20240;-54
2022/02/07 07:30:24;;;;;;;1.30;1.20;;;;;;;-0.69;100.00;96747.06;4982052;28;20335;-49
2022/02/07 07:32:58;;;;;;;1.30;1.20;;;;;;;-0.73;100.00;96757.72;4956320;28;20351;-49
2022/02/07 07:35:27;;;;;;;1.30;1.30;;;;;;;-0.65;100.00;96767.50;4977108;28;20210;-50
2022/02/07 07:37:56;;;;;;;2.22;1.73;;;;;;;-0.62;100.00;96762.03;4988808;28;20928;-50
2022/02/07 07:40:24;;;;;;;1.60;1.43;;;;;;;-0.62;100.00;96769.84;4981454;28;20372;-49
2022/02/07 07:42:54;;;;;;;1.77;1.53;;;;;;;-0.57;100.00;96777.28;4995578;28;20201;-47
2022/02/07 07:45:30;;;;;;;1.47;1.47;;;;;;;-0.64;100.00;96789.16;4980854;28;20775;-55
2022/02/07 07:48:04;;;;;;;1.60;1.43;;;;;;;-0.61;100.00;96783.69;4971687;28;20743;-50
2022/02/07 07:50:40;;;;;;;2.23;1.87;;;;;;;-0.63;100.00;96790.78;4999772;28;20495;-54
2022/02/07 07:53:18;;;;;;;3.20;1.57;;;;;;;-0.60;100.00;96793.97;4974279;28;20236;-50
2022/02/07 08:01:40;;;;;;;1.97;1.77;;;;;;;-0.56;100.00;96827.56;4982035;28;20235;-54
2022/02/07 08:04:10;;;;;;;4.70;2.53;;;;;;;-0.56;100.00;96823.19;4955251;28;20233;-49
2022/02/07 08:06:46;;;;;;;2.80;1.57;;;;;;;-0.57;100.00;96837.13;4975710;28;20212;-51
2022/02/07 08:09:33;;;;;;;1.63;1.33;;;;;;;-0.55;100.00;96842.25;4973835;28;20309;-48
2022/02/07 08:12:03;;;;;;;1.70;1.60;;;;;;;-0.56;100.00;96844.00;4980613;28;20312;-49
2022/02/07 08:14:35;;;;;;;3.40;1.50;;;;;;;-0.55;100.00;96848.25;4992109;28;20236;-51
2022/02/07 08:17:23;;;;;;;3.40;2.10;;;;;;;-0.48;100.00;96856.41;4985358;28;20220;-52
2022/02/07 08:19:53;;;;;;;5.13;2.43;;;;;;;-0.46;100.00;96859.72;4955578;28;21332;-51
2022/02/07 08:22:23;;;;;;;2.30;1.60;;;;;;;-0.43;100.00;96869.88;4977044;28;20256;-52
2022/02/07 08:24:55;;;;;;;3.40;1.87;;;;;;;-0.48;100.00;96874.63;4992806;28;20201;-50
2022/02/07 08:27:25;;;;;;;3.07;2.20;;;;;;;-0.54;100.00;96886.34;4990611;28;20211;-49
2022/02/07 08:29:54;;;;;;;4.13;2.00;;;;;;;-0.46;100.00;96883.16;4984063;28;20292;-51
2022/02/07 08:32:22;;;;;;;3.60;2.00;;;;;;;-0.42;100.00;96888.91;4983444;28;20327;-54
2022/02/07 08:34:53;;;;;;;1.90;1.80;;;;;;;-0.42;100.00;96892.34;4959706;28;20889;-51
2022/02/07 08:37:22;;;;;;;3.40;1.90;;;;;;;-0.44;100.00;96882.06;4980185;28;20209;-53
2022/02/07 08:39:50;;;;;;;2.93;2.10;;;;;;;-0.33;100.00;96896.81;4990978;28;20309;-51
2022/02/07 08:42:18;;;;;;;2.00;1.90;;;;;;;-0.23;100.00;96896.91;4994040;28;20229;-49
2022/02/07 08:44:47;;;;;;;2.30;2.13;;;;;;;-0.23;100.00;96912.53;4976755;28;20218;-53
2022/02/07 08:47:16;;;;;;;2.07;1.97;;;;;;;-0.19;100.00;96903.53;4996105;28;20295;-53
2022/02/07 08:49:45;;;;;;;4.77;1.80;;;;;;;-0.15;100.00;96910.16;4981701;28;20280;-53
2022/02/07 08:52:16;;;;;;;3.13;2.00;;;;;;;-0.20;100.00;96914.91;4945229;28;20235;-49
2022/02/07 08:54:45;;;;;;;2.83;1.93;;;;;;;-0.17;100.00;96925.06;4991237;28;20270;-51
2022/02/07 08:57:18;;;;;;;2.43;1.90;;;;;;;-0.20;100.00;96934.88;4995219;28;20197;-50
2022/02/07 09:00:04;;;;;;;2.27;2.17;;;;;;;-0.11;100.00;96941.16;4976259;28;20338;-50
2022/02/07 09:05:34;;;;;;;2.23;2.13;;;;;;;0.01;100.00;96947.16;4979173;28;20679;-53
2022/02/07 09:08:19;;;;;;;2.80;2.07;;;;;;;-0.04;100.00;96943.16;4979606;28;20212;-48
2022/02/07 09:10:49;;;;;;;2.77;2.40;;;;;;;-0.03;100.00;96951.78;4993175;28;20804;-48
2022/02/07 09:13:18;;;;;;;3.20;2.67;;;;;;;0.06;100.00;96942.41;4994571;28;20529;-48
2022/02/07 09:18:29;;;;;;;6.50;2.03;;;;;;;0.12;100.00;96954.94;4988560;28;20312;-49
2022/02/07 09:21:00;;;;;;;6.00;2.53;;;;;;;0.11;100.00;96963.69;4949056;28;21028;-48
2022/02/07 09:23:29;;;;;;;2.70;2.03;;;;;;;0.06;100.00;96955.44;4978636;28;20371;-48
2022/02/07 09:25:58;;;;;;;4.00;2.20;;;;;;;0.04;100.00;96976.41;4992089;28;20459;-50
2022/02/07 09:28:26;;;;;;;3.30;2.03;;;;;;;0.13;100.00;96980.03;4990857;28;20213;-47
2022/02/07 09:30:55;;;;;;;2.63;1.73;;;;;;;0.12;100.00;96979.22;4977233;28;20358;-50
2022/02/07 09:33:28;;;;;;;4.70;2.40;;;;;;;0.28;100.00;96996.22;4989777;28;20276;-50
2022/02/07 09:36:01;;;;;;;2.55;2.42;;;;;;;0.34;100.00;96997.50;4988714;28;20455;-51
2022/02/07 09:38:32;;;;;;;5.15;2.72;;;;;;;0.42;100.00;97003.75;4945741;28;21210;-45
2022/02/07 09:41:06;;;;;;;2.57;1.90;;;;;;;0.43;100.00;96992.38;4993200;28;20747;-49
2022/02/07 09:43:42;;;;;;;3.40;2.13;;;;;;;0.39;100.00;97011.84;4988038;28;20320;-46
2022/02/07 09:46:13;;;;;;;4.30;2.90;;;;;;;0.60;100.00;97013.63;4978630;28;20938;-49
2022/02/07 09:48:43;;;;;;;3.67;2.37;;;;;;;0.61;100.00;97015.28;4987446;28;20936;-54
2022/02/07 09:51:12;;;;;;;4.20;2.93;;;;;;;0.62;100.00;97029.97;4984539;28;20451;-50
2022/02/07 09:53:42;;;;;;;4.50;2.13;;;;;;;0.70;100.00;97034.56;4952008;28;20324;-52
2022/02/07 09:56:12;;;;;;;4.77;2.57;;;;;;;0.50;100.00;97042.22;4976651;28;20217;-53
2022/02/07 09:58:41;;;;;;;2.70;2.23;;;;;;;0.48;100.00;97043.31;4988707;28;20199;-50
2022/02/07 10:01:16;;;;;;;3.43;2.87;;;;;;;0.49;100.00;97048.38;4972678;28;20220;-49
2022/02/07 10:03:53;;;;;;;2.60;1.70;;;;;;;0.71;100.00;97046.66;4988170;28;20247;-50
2022/02/07 10:09:19;;;;;;;3.50;2.80;;;;;;;1.09;100.00;97065.31;4956951;28;20604;-48
2022/02/07 10:12:01;;;;;;;3.43;2.43;;;;;;;1.06;100.00;97055.97;4983207;28;20232;-49
2022/02/07 10:14:36;;;;;;;1.83;1.73;;;;;;;0.99;100.00;97067.88;5001478;28;20213;-48
2022/02/07 10:17:22;;;;;;;2.07;1.97;;;;;;;1.16;100.00;97066.50;4980588;28;20278;-47
2022/02/07 10:20:01;;;;;;;5.10;2.67;;;;;;;1.08;100.00;97076.72;4980136;28;22275;-51
2022/02/07 10:22:54;;;;;;;4.70;2.00;;;;;;;1.34;100.00;97079.78;4989439;28;20310;-50
2022/02/07 10:39:26;;;;;;;3.73;2.37;;;;;;;1.08;100.00;97115.84;4993505;28;20498;-50
2022/02/07 10:42:19;;;;;;;3.83;2.17;;;;;;;1.19;100.00;97115.81;4966921;28;20228;-50
2022/02/07 10:44:57;;;;;;;2.92;2.28;;;;;;;1.50;100.00;97115.03;4991453;28;20455;-52
2022/02/07 10:47:29;;;;;;;4.72;3.05;;;;;;;1.73;100.00;97113.09;4989587;28;20463;-45
2022/02/07 10:50:01;;;;;;;2.70;2.03;;;;;;;1.78;100.00;97126.59;4989155;28;21022;-48
2022/02/07 10:52:30;;;;;;;5.20;2.97;;;;;;;1.57;100.00;97124.00;4987329;28;20229;-51
2022/02/07 10:54:58;;;;;;;3.40;1.87;;;;;;;1.43;100.00;97131.22;4994624;28;20232;-49
2022/02/07 10:57:30;;;;;;;2.43;1.70;;;;;;;1.52;100.00;97139.25;4957915;28;20244;-52
2022/02/07 10:59:58;;;;;;;3.43;1.93;;;;;;;1.57;100.00;97137.91;4992728;28;20291;-50
2022/02/07 11:02:49;;;;;;;1.97;1.87;;;;;;;1.51;100.00;97143.63;4990028;28;20275;-49
2022/02/07 11:05:19;;;;;;;1.80;1.70;;;;;;;1.43;100.00;97157.34;4995357;28;20197;-50
2022/02/07 11:07:53;;;;;;;4.57;1.90;;;;;;;1.51;100.00;97163.69;4985050;28;20320;-49
2022/02/07 11:10:28;;;;;;;3.70;2.00;;;;;;;1.54;100.00;97168.66;4987327;28;20251;-52
2022/02/07 11:15:45;;;;;;;2.30;2.20;;;;;;;1.75;100.00;97179.09;4982064;28;20518;-43
2022/02/07 11:18:28;;;;;;;2.03;1.93;;;;;;;1.72;100.00;97180.22;4992905;28;20264;-45
2022/02/07 11:21:16;;;;;;;2.65;2.03;;;;;;;2.00;100.00;97190.13;4987661;28;20634;-49
2022/02/07 11:23:54;;;;;;;4.25;2.45;;;;;;;2.12;100.00;97196.91;4978018;28;20921;-49
2022/02/07 11:26:29;;;;;;;3.00;2.40;;;;;;;2.14;100.00;97207.25;4984256;28;20263;-51
2022/02/07 11:28:59;;;;;;;3.30;2.40;;;;;;;2.01;100.00;97208.28;4981992;28;20235;-50
2022/02/07 11:31:32;;;;;;;3.77;2.20;;;;;;;1.92;100.00;97206.44;4989555;28;20307;-45
2022/02/07 11:34:14;;;;;;;5.43;2.50;;;;;;;1.91;100.00;97238.75;4976808;28;20244;-49
2022/02/07 11:36:42;;;;;;;4.20;2.63;;;;;;;2.31;100.00;97229.34;4991772;28;20324;-47
2022/02/07 11:39:13;;;;;;;2.00;1.90;;;;;;;2.61;100.00;97232.88;4992878;28;20209;-46
2022/02/07 11:42:08;;;;;;;3.97;2.30;;;;;;;2.65;100.00;97233.47;4938641;28;20472;-47
2022/02/07 11:45:14;;;;;;;3.30;2.17;;;;;;;2.92;100.00;97248.53;4989269;28;20221;-46
2022/02/07 11:47:42;;;;;;;4.70;2.30;;;;;;;2.70;100.00;97247.81;4914059;28;20745;-46
2022/02/07 11:50:11;;;;;;;5.07;2.77;;;;;;;2.27;100.00;97254.91;4913757;28;20768;-48
2022/02/07 11:52:42;;;;;;;4.88;2.72;;;;;;;2.34;100.00;97251.78;4931062;28;20856;-49
2022/02/07 11:55:14;;;;;;;3.90;2.40;;;;;;;2.27;100.00;97264.53;4929358;28;20523;-47
2022/02/07 11:57:52;;;;;;;4.18;2.50;;;;;;;2.61;100.00;97272.13;4879335;28;21293;-50
2022/02/07 12:00:24;;;;;;;4.07;2.40;;;;;;;2.91;100.00;97275.69;4931765;28;20209;-49
2022/02/07 12:02:53;;;;;;;4.47;1.93;;;;;;;2.91;100.00;97278.31;4917428;28;21157;-48
2022/02/07 12:05:23;;;;;;;4.03;2.80;;;;;;;2.76;100.00;97272.59;4930798;28;20694;-45
2022/02/07 12:08:02;;;;;;;5.27;2.43;;;;;;;2.66;100.00;97285.66;4920130;28;20325;-48
2022/02/07 12:10:39;;;;;;;2.00;1.90;;;;;;;2.66;100.00;97293.53;4933348;28;20292;-46
2022/02/07 12:13:30;;;;;;;4.43;2.13;;;;;;;2.79;100.00;97295.88;4884643;28;20211;-48
2022/02/07 12:16:05;;;;;;;2.43;2.10;;;;;;;2.92;100.00;97295.66;4927576;28;20765;-45
2022/02/07 12:18:33;;;;;;;3.93;1.70;;;;;;;2.89;100.00;97299.38;4945365;28;20436;-50
2022/02/07 12:21:22;;;;;;;1.90;1.80;;;;;;;3.13;100.00;97300.81;4976789;28;20260;-48
2022/02/07 12:23:53;;;;;;;2.10;1.93;;;;;;;3.14;100.00;97312.94;4994872;28;20888;-49
2022/02/07 12:26:22;;;;;;;3.03;1.97;;;;;;;3.55;100.00;97306.81;4992191;28;20215;-45
2022/02/07 12:28:57;;;;;;;3.07;2.00;;;;;;;3.28;100.00;97316.97;4942031;28;20239;-47
2022/02/07 12:31:29;;;;;;;2.03;1.80;;;;;;;2.49;100.00;97336.81;4990672;28;20231;-47
2022/02/07 12:33:59;;;;;;;2.33;1.87;;;;;;;2.19;100.00;97342.78;4994688;28;20201;-48
2022/02/07 12:36:30;;;;;;;2.70;2.13;;;;;;;2.13;100.00;97352.78;4975682;28;20217;-50
2022/02/07 12:39:00;;;;;;;2.95;1.75;;;;;;;1.98;100.00;97352.28;4989339;28;20533;-47
2022/02/07 12:41:29;;;;;;;1.97;1.43;;;;;;;1.87;100.00;97358.38;4992292;28;20228;-50
2022/02/07 12:43:58;;;;;;;1.80;1.70;;;;;;;2.26;100.00;97346.53;4945471;28;20232;-49
2022/02/07 12:46:30;;;;;;;1.37;1.37;;;;;;;2.63;100.00;97359.16;4993105;28;20236;-48
2022/02/07 12:49:01;;;;;;;3.33;1.50;;;;;;;2.64;100.00;97362.63;4992530;28;20236;-49
2022/02/07 12:51:31;;;;;;;1.63;1.30;;;;;;;2.62;100.00;97351.44;4977614;28;20745;-49
2022/02/07 12:54:00;;;;;;;1.83;1.73;;;;;;;2.48;100.00;97358.69;4974538;28;20200;-47
2022/02/07 12:56:32;;;;;;;2.47;1.77;;;;;;;2.66;100.00;97361.53;4993016;28;20212;-52
2022/02/07 12:59:01;;;;;;;1.60;1.37;;;;;;;2.53;100.00;97356.50;4949717;28;20213;-51
2022/02/07 13:01:35;;;;;;;1.57;1.47;;;;;;;2.45;100.00;97361.53;4990019;28;20231;-52
2022/02/07 13:04:05;;;;;;;3.60;1.80;;;;;;;2.43;100.00;97364.28;4991466;28;20240;-51
2022/02/07 13:06:35;;;;;;;3.40;2.00;;;;;;;2.37;100.00;97362.19;4981676;28;21002;-54
2022/02/07 13:09:23;;;;;;;1.90;1.53;;;;;;;2.35;100.00;97361.50;4976659;28;20558;-51
2022/02/07 13:12:01;;;;;;;2.83;2.57;;;;;;;2.33;100.00;97362.56;4996264;28;20248;-47
2022/02/07 13:14:30;;;;;;;1.77;1.50;;;;;;;2.40;100.00;97363.69;4942120;28;20213;-50
2022/02/07 13:16:59;;;;;;;2.40;1.73;;;;;;;2.43;100.00;97381.75;4969879;28;20205;-48
2022/02/07 13:19:30;;;;;;;1.87;1.77;;;;;;;2.60;100.00;97381.19;4994219;28;20233;-53
2022/02/07 13:21:58;;;;;;;4.25;2.10;;;;;;;3.23;100.00;97370.75;4966810;28;20480;-48
2022/02/07 13:24:30;;;;;;;1.95;1.80;;;;;;;3.33;100.00;97364.53;4977810;28;20966;-48
2022/02/07 13:27:00;;;;;;;3.67;1.87;;;;;;;2.69;100.00;97376.97;4992748;28;20197;-51
2022/02/07 13:29:30;;;;;;;2.72;2.00;;;;;;;3.13;100.00;97376.75;4951646;28;20465;-51
2022/02/07 13:32:01;;;;;;;2.97;2.50;;;;;;;3.05;100.00;97384.44;4983156;28;20463;-50
2022/02/07 13:34:31;;;;;;;2.67;1.98;;;;;;;2.64;100.00;97391.41;4976013;28;20467;-53